Time;durP1;ratioP1;P1;durP2;ratioP2;P2;SDS_P1;SDS_P2;PMS_P1;PMS_P2;Temp;Humidity;BMP_temperature;BMP_pressure;BME280_temperature;BME280_humidity;BME280_pressure;Samples;Min_cycle;Max_cycle;Signal;HPM_P1;HPM_P2
2022/07/05 00:00:27;;;;;;;9.77;5.93;;;;;;;13.86;84.73;101954.31;10449188;28;20033;-77
2022/07/05 00:05:27;;;;;;;8.85;5.45;;;;;;;13.80;84.70;101947.00;10491443;28;20066;-77
2022/07/05 00:10:28;;;;;;;9.30;5.95;;;;;;;13.72;85.51;101950.06;10511416;28;20043;-77
2022/07/05 00:15:28;;;;;;;9.25;7.50;;;;;;;13.70;85.97;101951.72;10482864;28;20374;-77
2022/07/05 00:20:29;;;;;;;9.35;6.22;;;;;;;13.73;86.45;101949.25;10475035;28;20564;-77
2022/07/05 00:25:29;;;;;;;11.80;5.88;;;;;;;13.67;86.42;101949.81;10496881;28;20063;-77
2022/07/05 00:30:30;;;;;;;6.63;5.72;;;;;;;13.58;86.35;101941.44;10493462;28;20032;-78
2022/07/05 00:35:30;;;;;;;7.35;5.30;;;;;;;13.36;87.37;101935.00;10528694;28;20036;-77
2022/07/05 00:40:31;;;;;;;8.73;4.88;;;;;;;13.00;87.69;101930.47;10488106;28;20055;-77
2022/07/05 00:45:31;;;;;;;10.05;6.88;;;;;;;12.72;89.35;101933.28;10530957;28;20042;-77
2022/07/05 00:50:33;;;;;;;10.00;7.05;;;;;;;12.54;89.87;101936.69;10523461;28;20041;-76
2022/07/05 00:55:33;;;;;;;10.23;5.82;;;;;;;12.39;90.24;101941.06;10488205;28;20037;-77
2022/07/05 01:00:34;;;;;;;8.98;6.10;;;;;;;12.29;91.85;101944.91;10501698;28;20032;-77
2022/07/05 01:05:35;;;;;;;7.72;5.40;;;;;;;12.08;92.40;101940.22;10513122;28;20085;-77
2022/07/05 01:10:35;;;;;;;10.65;6.50;;;;;;;12.11;93.90;101936.84;10500617;28;20074;-77
2022/07/05 01:15:36;;;;;;;11.45;7.68;;;;;;;12.22;94.43;101943.63;10487408;28;20043;-77
2022/07/05 01:20:36;;;;;;;17.10;9.32;;;;;;;12.26;94.33;101942.97;10482741;28;20044;-78
2022/07/05 01:25:37;;;;;;;10.30;7.03;;;;;;;12.25;94.16;101949.06;10511923;28;20976;-77
2022/07/05 01:30:37;;;;;;;8.75;7.00;;;;;;;12.18;94.10;101934.69;10509444;28;20471;-77
2022/07/05 01:35:38;;;;;;;11.57;7.20;;;;;;;12.16;93.98;101932.78;10511322;28;20036;-77
2022/07/05 01:40:38;;;;;;;14.77;8.90;;;;;;;12.12;94.21;101925.53;10515187;28;20130;-77
2022/07/05 01:45:39;;;;;;;11.18;7.78;;;;;;;11.96;94.23;101921.09;10487430;28;20063;-77
2022/07/05 01:50:51;;;;;;;8.82;7.65;;;;;;;11.71;94.56;101931.00;10482804;28;20040;-77
2022/07/05 01:55:52;;;;;;;11.45;7.47;;;;;;;11.46;94.98;101929.53;10511225;28;20040;-77
2022/07/05 02:00:53;;;;;;;12.13;7.18;;;;;;;11.37;96.77;101931.59;10513945;28;20079;-77
2022/07/05 02:05:54;;;;;;;10.90;8.48;;;;;;;11.19;96.64;101930.44;10428175;28;20039;-77
2022/07/05 02:10:54;;;;;;;11.27;8.48;;;;;;;11.08;97.41;101930.69;10474782;28;20032;-77
2022/07/05 02:15:55;;;;;;;18.55;10.13;;;;;;;11.07;98.75;101933.22;10527115;28;20097;-77
2022/07/05 02:20:55;;;;;;;11.18;8.23;;;;;;;11.15;99.74;101926.75;10494877;28;20089;-78
2022/07/05 02:25:56;;;;;;;10.65;7.43;;;;;;;11.12;99.18;101935.31;10486852;28;20025;-76
2022/07/05 02:30:56;;;;;;;16.70;8.32;;;;;;;11.00;98.94;101931.91;10503053;28;20043;-77
2022/07/05 02:35:58;;;;;;;14.23;9.15;;;;;;;10.78;98.83;101930.56;10527967;28;20235;-77
2022/07/05 02:40:58;;;;;;;15.27;9.03;;;;;;;10.60;99.29;101940.75;10492306;28;20403;-77
2022/07/05 02:45:59;;;;;;;14.38;10.05;;;;;;;10.43;99.55;101934.41;10483580;28;20067;-77
2022/07/05 02:51:00;;;;;;;13.88;9.13;;;;;;;10.23;99.69;101947.06;10502387;28;20040;-77
2022/07/05 02:56:01;;;;;;;12.60;9.20;;;;;;;10.06;100.00;101945.94;10508173;28;20036;-77
2022/07/05 03:01:01;;;;;;;12.43;10.23;;;;;;;9.94;100.00;101945.13;10506045;28;20098;-77
2022/07/05 03:06:02;;;;;;;11.93;9.48;;;;;;;9.82;100.00;101955.66;10465504;28;20428;-77
2022/07/05 03:11:02;;;;;;;13.40;10.30;;;;;;;9.70;100.00;101954.00;10505823;27;20059;-77
2022/07/05 03:16:03;;;;;;;18.88;11.75;;;;;;;9.68;100.00;101968.69;10484243;28;20039;-77
2022/07/05 03:21:04;;;;;;;16.92;12.95;;;;;;;9.70;100.00;101966.19;10505076;28;20054;-77
2022/07/05 03:26:04;;;;;;;17.30;13.35;;;;;;;9.68;100.00;101966.06;10483762;28;20458;-77
2022/07/05 03:31:05;;;;;;;17.88;13.43;;;;;;;9.62;100.00;101963.03;10469324;28;20048;-76
2022/07/05 03:36:06;;;;;;;17.23;10.80;;;;;;;9.62;100.00;101967.38;10481654;28;20031;-76
2022/07/05 03:41:06;;;;;;;18.75;13.75;;;;;;;9.69;100.00;101969.59;10461704;28;20032;-77
2022/07/05 03:46:07;;;;;;;17.52;13.70;;;;;;;9.62;100.00;101969.97;10472661;28;20498;-77
2022/07/05 03:51:08;;;;;;;17.27;11.90;;;;;;;9.53;100.00;101965.94;10483874;28;20431;-77
2022/07/05 03:56:08;;;;;;;19.88;13.65;;;;;;;9.58;100.00;101966.22;10458820;28;20055;-77
2022/07/05 04:01:09;;;;;;;22.85;15.25;;;;;;;9.61;100.00;101971.66;10482626;28;20051;-77
2022/07/05 04:06:09;;;;;;;29.33;19.83;;;;;;;9.68;100.00;101975.63;10449713;28;20128;-77
2022/07/05 04:11:12;;;;;;;25.30;17.17;;;;;;;9.74;100.00;101973.44;10451973;28;20474;-77
2022/07/05 04:16:13;;;;;;;23.23;16.85;;;;;;;9.82;100.00;101980.09;10442453;28;20028;-77
2022/07/05 04:21:13;;;;;;;26.20;18.92;;;;;;;9.87;100.00;101989.97;10477362;28;20399;-77
2022/07/05 04:26:14;;;;;;;29.20;20.63;;;;;;;9.99;100.00;101989.09;10485067;28;20539;-77
2022/07/05 04:31:14;;;;;;;27.52;21.65;;;;;;;10.34;100.00;101984.44;10489737;28;20115;-77
2022/07/05 04:36:15;;;;;;;28.08;21.95;;;;;;;10.75;100.00;101994.94;10469945;28;20063;-77
2022/07/05 04:41:15;;;;;;;30.63;19.27;;;;;;;11.14;100.00;102004.44;10493589;28;20060;-77
2022/07/05 04:46:16;;;;;;;22.80;15.50;;;;;;;11.42;100.00;102000.94;10460241;28;20045;-77
2022/07/05 04:51:16;;;;;;;20.70;14.13;;;;;;;11.56;100.00;101999.19;10458775;28;20068;-77
2022/07/05 04:56:17;;;;;;;17.90;13.65;;;;;;;11.74;100.00;102009.88;10460781;28;20439;-77
2022/07/05 05:01:17;;;;;;;16.33;11.13;;;;;;;12.00;100.00;102001.81;10467112;28;20052;-78
2022/07/05 05:06:18;;;;;;;15.27;11.98;;;;;;;12.54;98.68;102007.59;10460314;28;20052;-78
2022/07/05 05:11:18;;;;;;;15.40;12.15;;;;;;;12.88;93.69;102001.63;10465129;28;20060;-78
2022/07/05 05:16:19;;;;;;;14.65;9.98;;;;;;;13.59;90.29;102003.72;10461007;28;20048;-78
2022/07/05 05:21:20;;;;;;;14.07;11.70;;;;;;;14.08;86.64;101998.41;10473086;28;20095;-78
2022/07/05 05:26:20;;;;;;;14.52;9.73;;;;;;;14.93;84.17;101993.81;10460689;28;20041;-78
2022/07/05 05:31:21;;;;;;;13.05;10.50;;;;;;;15.31;83.83;102004.38;10447141;28;20713;-79
2022/07/05 05:36:21;;;;;;;17.55;8.68;;;;;;;16.44;78.80;101997.88;10445001;28;20110;-78
2022/07/05 05:41:22;;;;;;;10.27;8.77;;;;;;;17.23;74.90;101993.06;10461381;28;20060;-78
2022/07/05 05:46:23;;;;;;;10.43;6.55;;;;;;;17.27;74.59;102000.28;10444138;28;20040;-79
2022/07/05 05:51:24;;;;;;;8.05;4.60;;;;;;;17.34;74.94;101995.22;10427318;28;20037;-78
2022/07/05 05:56:26;;;;;;;7.60;6.00;;;;;;;17.38;75.41;102002.44;10440515;28;20413;-78
2022/07/05 06:01:27;;;;;;;10.55;6.97;;;;;;;17.60;76.44;102012.09;10443525;28;20041;-77
2022/07/05 06:06:27;;;;;;;8.55;6.65;;;;;;;19.10;70.63;102012.72;10459908;28;20079;-77
2022/07/05 06:11:28;;;;;;;6.20;5.40;;;;;;;21.32;58.89;101999.88;10488665;28;20036;-78
2022/07/05 06:16:28;;;;;;;5.80;4.40;;;;;;;20.97;60.54;102007.13;10486096;28;20492;-76
2022/07/05 06:21:29;;;;;;;7.00;5.07;;;;;;;19.82;59.80;102011.28;10502579;28;20034;-78
2022/07/05 06:26:29;;;;;;;6.20;4.17;;;;;;;19.03;66.29;102017.84;10508227;28;20062;-76
2022/07/05 06:31:30;;;;;;;7.57;4.68;;;;;;;19.31;67.57;102025.75;10489419;28;20040;-76
2022/07/05 06:36:30;;;;;;;7.20;4.88;;;;;;;19.93;61.95;102028.44;10495488;28;20044;-76
2022/07/05 06:41:31;;;;;;;11.65;4.60;;;;;;;19.83;62.44;102039.63;10497457;28;20185;-77
2022/07/05 06:46:31;;;;;;;7.90;6.30;;;;;;;19.88;61.55;102031.81;10513077;28;20096;-76
2022/07/05 06:51:32;;;;;;;8.02;5.97;;;;;;;20.13;57.89;102032.50;10500868;28;20043;-78
2022/07/05 06:56:32;;;;;;;7.60;5.32;;;;;;;19.65;60.29;102037.38;10501628;28;20059;-77
2022/07/05 07:01:33;;;;;;;8.27;6.93;;;;;;;20.15;59.69;102036.09;10501072;28;20059;-76
2022/07/05 07:06:33;;;;;;;9.70;5.67;;;;;;;22.65;55.23;102030.81;10488865;28;20391;-76
2022/07/05 07:11:34;;;;;;;14.33;8.77;;;;;;;24.16;49.38;102033.66;10483740;28;20043;-78
2022/07/05 07:16:35;;;;;;;14.20;5.77;;;;;;;22.79;51.33;102039.03;10510654;28;20040;-78
2022/07/05 07:21:35;;;;;;;13.37;6.67;;;;;;;22.18;53.73;102047.75;10495594;28;20072;-77
2022/07/05 07:31:58;;;;;;;10.55;6.32;;;;;;;23.66;49.21;102054.50;10487200;28;20032;-79
2022/07/05 07:36:59;;;;;;;10.30;5.60;;;;;;;24.36;48.49;102054.34;10441409;28;20045;-78
2022/07/05 07:42:00;;;;;;;17.43;8.73;;;;;;;25.26;47.09;102050.56;10494147;28;20044;-80
2022/07/05 07:47:00;;;;;;;12.33;8.60;;;;;;;24.72;47.19;102055.53;10522484;28;20044;-80
2022/07/05 07:52:01;;;;;;;9.97;6.60;;;;;;;26.20;45.97;102054.50;10522319;28;20071;-77
2022/07/05 07:57:04;;;;;;;11.50;5.40;;;;;;;27.49;41.41;102057.94;10522482;28;20123;-77
2022/07/05 08:02:05;;;;;;;8.95;6.82;;;;;;;27.52;37.44;102052.56;10522707;28;20500;-78
2022/07/05 08:07:05;;;;;;;6.60;5.32;;;;;;;27.22;40.03;102056.22;10506857;28;20139;-77
2022/07/05 08:12:06;;;;;;;7.50;4.43;;;;;;;26.53;39.95;102059.00;10521628;28;20227;-77
2022/07/05 08:17:08;;;;;;;;;;;;;;;26.35;40.58;102062.56;10524611;28;20302;-77
2022/07/05 08:22:08;;;;;;;8.07;4.32;;;;;;;27.60;38.81;102051.63;10520691;28;20353;-76
2022/07/05 08:27:09;;;;;;;9.97;4.37;;;;;;;27.52;38.52;102066.00;10474710;28;20055;-77
2022/07/05 08:32:10;;;;;;;7.27;4.77;;;;;;;27.67;38.45;102051.59;10480273;28;20222;-77
2022/07/05 08:37:10;;;;;;;5.90;4.70;;;;;;;28.70;36.01;102045.50;10480203;28;20269;-77
2022/07/05 08:42:11;;;;;;;7.10;3.63;;;;;;;28.54;37.61;102044.72;10482561;28;20302;-77
2022/07/05 08:47:11;;;;;;;6.75;3.25;;;;;;;29.13;36.51;102038.78;10481820;28;20350;-76
2022/07/05 08:52:15;;;;;;;7.28;4.20;;;;;;;26.65;37.47;102046.47;10463435;28;20484;-77
2022/07/05 08:57:15;;;;;;;8.57;5.15;;;;;;;25.70;40.55;102048.09;10467824;28;20033;-77
2022/07/05 09:02:16;;;;;;;11.53;5.07;;;;;;;24.92;43.18;102056.59;10472014;28;20041;-76
2022/07/05 09:07:17;;;;;;;5.40;3.37;;;;;;;24.77;42.68;102053.81;10469583;28;20032;-77
2022/07/05 09:12:17;;;;;;;7.20;3.57;;;;;;;24.68;45.95;102060.00;10470416;28;20074;-78
2022/07/05 09:17:18;;;;;;;8.20;4.73;;;;;;;25.83;40.61;102067.78;10454166;28;20518;-78
2022/07/05 09:22:18;;;;;;;10.57;5.30;;;;;;;26.12;42.59;102061.59;10470146;28;20036;-78
2022/07/05 09:27:19;;;;;;;5.73;3.80;;;;;;;25.83;41.23;102074.06;10470098;28;20116;-78
2022/07/05 09:32:23;;;;;;;5.40;3.77;;;;;;;25.07;41.08;102063.88;10486331;28;20044;-77
2022/07/05 09:37:42;;;;;;;4.75;3.58;;;;;;;25.87;42.17;102064.22;10488248;28;20058;-79
2022/07/05 09:42:42;;;;;;;5.78;3.58;;;;;;;28.09;36.36;102054.03;10471404;28;20136;-78
2022/07/05 09:47:43;;;;;;;4.00;2.80;;;;;;;26.10;38.52;102061.63;10485023;28;20037;-77
2022/07/05 09:52:43;;;;;;;6.03;4.73;;;;;;;23.71;44.82;102065.25;10488224;28;20104;-77
2022/07/05 09:57:46;;;;;;;9.80;4.50;;;;;;;26.03;42.82;102054.44;10485262;28;20131;-77
2022/07/05 10:02:52;;;;;;;6.20;4.07;;;;;;;28.70;39.96;102050.88;10486049;28;20048;-78
2022/07/05 10:07:57;;;;;;;7.85;4.18;;;;;;;26.10;39.73;102059.81;10468166;28;20044;-76
2022/07/05 10:13:02;;;;;;;7.63;4.00;;;;;;;23.58;46.31;102062.44;10451678;28;20044;-78
2022/07/05 10:18:10;;;;;;;6.88;3.83;;;;;;;22.82;50.11;102069.31;10440175;28;20036;-77
2022/07/05 10:23:14;;;;;;;7.50;5.07;;;;;;;22.41;50.38;102067.75;10519798;28;20042;-78
2022/07/05 10:28:19;;;;;;;5.13;3.75;;;;;;;21.78;51.56;102064.78;10499209;28;20491;-78
2022/07/05 10:33:24;;;;;;;7.85;4.30;;;;;;;22.14;52.32;102070.78;10517798;28;20070;-78
2022/07/05 10:38:25;;;;;;;5.72;3.20;;;;;;;22.05;51.64;102065.28;10499357;28;20389;-78
2022/07/05 10:43:26;;;;;;;6.10;3.63;;;;;;;22.26;54.05;102060.34;10467058;28;20039;-78
2022/07/05 10:48:27;;;;;;;5.20;4.20;;;;;;;27.19;43.16;102057.13;10466347;28;20499;-76
2022/07/05 10:53:48;;;;;;;10.93;3.08;;;;;;;29.05;39.85;102046.97;10465375;28;20036;-78
2022/07/05 10:58:49;;;;;;;3.58;2.03;;;;;;;27.54;37.31;102052.56;10484629;28;20040;-79
2022/07/05 11:04:02;;;;;;;26.70;3.55;;;;;;;27.62;37.52;102036.38;10449892;28;20495;-78
2022/07/05 11:09:03;;;;;;;4.10;1.90;;;;;;;28.70;35.97;102037.41;10495850;28;20495;-79
2022/07/05 11:14:21;;;;;;;5.50;2.73;;;;;;;29.93;33.51;102025.16;10481830;28;20039;-79
2022/07/05 11:19:22;;;;;;;5.25;3.38;;;;;;;30.58;33.35;102030.44;10478639;28;20549;-79
2022/07/05 11:24:31;;;;;;;4.73;2.33;;;;;;;29.07;31.82;102033.44;10519649;28;20078;-77
2022/07/05 11:29:50;;;;;;;4.63;1.90;;;;;;;27.70;37.54;102026.47;10509001;28;20077;-79
2022/07/05 11:34:52;;;;;;;5.50;3.10;;;;;;;28.60;33.95;102022.25;10506198;28;20510;-78
2022/07/05 11:40:11;;;;;;;4.55;2.58;;;;;;;30.15;31.65;102018.53;10510104;28;20028;-79
2022/07/05 11:45:11;;;;;;;4.97;1.55;;;;;;;29.98;31.62;102016.09;10483549;28;20139;-78
2022/07/05 11:50:12;;;;;;;7.20;2.43;;;;;;;28.49;33.13;102020.56;10480971;28;20040;-78
2022/07/05 11:55:13;;;;;;;3.40;2.00;;;;;;;27.72;36.49;102011.22;10481675;28;20373;-78
2022/07/05 12:00:14;;;;;;;2.63;1.77;;;;;;;28.03;36.07;102007.44;10436328;28;20029;-78
2022/07/05 12:05:15;;;;;;;8.05;2.15;;;;;;;29.05;32.86;101995.75;10494586;28;20430;-80
2022/07/05 12:15:36;;;;;;;9.65;2.67;;;;;;;25.46;40.81;102014.97;10522746;28;20030;-80
2022/07/05 12:20:37;;;;;;;5.88;2.30;;;;;;;24.11;41.64;102022.03;10522950;28;20115;-81
2022/07/05 12:25:37;;;;;;;7.68;2.22;;;;;;;25.81;38.42;102003.47;10510286;28;20127;-80
2022/07/05 12:30:38;;;;;;;3.57;2.07;;;;;;;24.96;41.64;102009.34;10453911;28;20052;-79
2022/07/05 12:35:45;;;;;;;6.73;2.70;;;;;;;23.76;42.88;102008.28;10497391;28;20381;-80
2022/07/05 12:40:47;;;;;;;6.88;2.63;;;;;;;25.18;41.99;102007.66;10468340;28;20089;-79
2022/07/05 12:46:03;;;;;;;;;;;;;;;27.56;36.48;101986.22;10512975;28;20506;-78
2022/07/05 12:51:05;;;;;;;7.97;2.22;;;;;;;26.62;39.44;101993.66;10488090;28;20040;-79
2022/07/05 13:01:27;;;;;;;7.20;2.88;;;;;;;27.84;41.58;101994.13;10492144;28;20060;-80
2022/07/05 13:06:54;;;;;;;6.57;2.30;;;;;;;27.06;39.70;101998.94;10451329;28;20044;-78
2022/07/05 13:12:24;;;;;;;11.27;2.78;;;;;;;24.38;42.64;102004.44;10502041;28;20071;-79
2022/07/05 13:17:25;;;;;;;12.38;3.13;;;;;;;23.60;43.68;102003.66;10465381;28;20089;-78
2022/07/05 13:22:25;;;;;;;5.43;2.67;;;;;;;23.49;44.48;102006.22;10488077;28;20484;-78
2022/07/05 13:27:26;;;;;;;17.20;4.40;;;;;;;22.85;45.15;102021.34;10481661;28;20040;-79
2022/07/05 13:32:27;;;;;;;8.87;3.37;;;;;;;22.19;47.53;102018.44;10471386;28;20045;-78
2022/07/05 13:37:28;;;;;;;10.37;4.93;;;;;;;21.77;49.03;102027.44;10495221;28;20063;-78
2022/07/05 13:42:29;;;;;;;10.60;5.63;;;;;;;21.42;50.13;102026.72;10517986;28;20892;-78
2022/07/05 13:47:29;;;;;;;7.93;5.23;;;;;;;21.41;50.73;102024.91;10486864;28;20127;-78
2022/07/05 13:52:30;;;;;;;7.88;5.15;;;;;;;21.47;50.36;102026.84;10493271;28;20751;-78
2022/07/05 13:57:31;;;;;;;7.77;4.80;;;;;;;21.53;52.95;102023.38;10513651;28;20048;-79
2022/07/05 14:02:32;;;;;;;7.40;5.60;;;;;;;21.47;51.71;102017.94;10520795;28;20044;-78
2022/07/05 14:07:32;;;;;;;6.47;5.63;;;;;;;21.63;52.01;102021.84;10495603;28;20177;-77
2022/07/05 14:12:33;;;;;;;10.15;6.88;;;;;;;21.78;51.88;102029.25;10509867;28;20036;-77
2022/07/05 14:17:33;;;;;;;5.20;4.40;;;;;;;22.03;50.09;102027.97;10476496;28;20043;-79
2022/07/05 14:22:35;;;;;;;7.23;3.50;;;;;;;22.04;48.54;102029.75;10470538;28;20036;-80
2022/07/05 14:27:39;;;;;;;4.25;2.72;;;;;;;22.20;49.81;102027.38;10470167;28;20044;-78
2022/07/05 14:32:40;;;;;;;4.53;3.17;;;;;;;22.28;48.01;102026.63;10465029;28;20033;-76
2022/07/05 14:37:40;;;;;;;5.75;3.25;;;;;;;22.93;47.60;102024.13;10442955;28;20073;-77
2022/07/05 14:42:42;;;;;;;8.52;3.92;;;;;;;23.23;47.08;102035.19;10457309;28;20033;-77
2022/07/05 14:47:42;;;;;;;8.83;3.37;;;;;;;23.84;46.02;102026.19;10453639;28;20126;-77
2022/07/05 14:52:43;;;;;;;3.10;1.60;;;;;;;25.54;44.63;102023.03;10416783;28;20591;-77
2022/07/05 14:57:44;;;;;;;6.33;2.07;;;;;;;26.74;40.83;102027.66;10448682;28;20032;-78
2022/07/05 15:02:44;;;;;;;6.07;2.67;;;;;;;25.65;40.00;102021.28;10442950;28;20086;-78
2022/07/05 15:07:45;;;;;;;4.63;1.73;;;;;;;24.18;41.91;102023.88;10429585;28;20481;-78
2022/07/05 15:12:46;;;;;;;5.53;1.53;;;;;;;22.89;45.52;102030.28;10444494;28;20056;-75
2022/07/05 15:17:46;;;;;;;4.23;1.80;;;;;;;22.14;46.49;102030.81;10452209;28;20097;-76
2022/07/05 15:22:47;;;;;;;6.10;2.70;;;;;;;21.62;47.23;102026.22;10435580;28;20136;-75
2022/07/05 15:27:47;;;;;;;8.75;1.75;;;;;;;21.70;48.15;102027.31;10514170;28;20125;-76
2022/07/05 15:32:48;;;;;;;4.75;2.58;;;;;;;21.78;49.83;102032.81;10490062;28;20174;-75
2022/07/05 15:37:49;;;;;;;3.33;1.97;;;;;;;21.46;49.00;102042.75;10498707;28;20036;-76
2022/07/05 15:42:49;;;;;;;3.97;1.90;;;;;;;21.62;49.91;102030.69;10489062;28;20059;-77
2022/07/05 15:47:51;;;;;;;5.17;1.87;;;;;;;22.02;48.00;102033.25;10515054;28;20123;-77
2022/07/05 15:52:51;;;;;;;5.43;1.90;;;;;;;22.10;46.85;102023.63;10494538;28;20446;-77
2022/07/05 15:57:52;;;;;;;5.20;2.22;;;;;;;22.02;48.19;102028.81;10474454;28;20563;-77
2022/07/05 16:02:53;;;;;;;5.72;1.95;;;;;;;21.92;47.50;102038.41;10498809;28;20047;-77
2022/07/05 16:07:53;;;;;;;5.93;2.13;;;;;;;21.84;47.38;102035.59;10495733;28;20154;-78
2022/07/05 16:12:54;;;;;;;5.20;2.50;;;;;;;21.32;49.26;102040.69;10502772;28;20531;-77
2022/07/05 16:17:55;;;;;;;4.82;1.70;;;;;;;21.04;49.99;102037.44;10501337;28;20040;-77
2022/07/05 16:22:57;;;;;;;6.15;3.30;;;;;;;20.73;50.05;102039.31;10499103;28;20067;-76
2022/07/05 16:27:57;;;;;;;3.97;1.40;;;;;;;20.74;50.66;102048.22;10481974;28;20550;-77
2022/07/05 16:32:58;;;;;;;7.28;2.38;;;;;;;20.67;49.82;102052.47;10503441;28;20271;-76
2022/07/05 16:37:58;;;;;;;5.80;1.67;;;;;;;20.51;50.52;102057.41;10500774;28;20139;-76
2022/07/05 16:42:59;;;;;;;4.10;1.98;;;;;;;20.42;50.66;102061.63;10481403;28;20041;-75
2022/07/05 16:48:00;;;;;;;7.88;1.70;;;;;;;20.45;50.48;102061.69;10503277;28;20068;-75
2022/07/05 16:53:01;;;;;;;7.97;3.28;;;;;;;20.41;51.18;102060.69;10483303;28;20044;-76
2022/07/05 16:58:02;;;;;;;9.93;2.38;;;;;;;20.55;49.07;102071.69;10480491;28;20063;-76
2022/07/05 17:03:03;;;;;;;5.55;1.73;;;;;;;20.76;49.45;102070.44;10503410;28;20480;-75
2022/07/05 17:08:05;;;;;;;2.33;1.27;;;;;;;20.86;48.52;102064.50;10493663;28;20045;-76
2022/07/05 17:13:05;;;;;;;;;;;;;;;20.39;49.88;102081.03;10489517;28;20036;-76
2022/07/05 17:18:06;;;;;;;6.35;1.80;;;;;;;20.12;51.24;102084.75;10497842;28;19970;-75
2022/07/05 17:23:06;;;;;;;3.75;1.67;;;;;;;19.89;51.85;102087.66;10471780;28;20507;-75
2022/07/05 17:28:08;;;;;;;3.65;1.40;;;;;;;19.97;50.47;102095.84;10511749;28;20045;-77
2022/07/05 17:33:08;;;;;;;6.20;1.93;;;;;;;19.76;50.84;102093.44;10519296;28;20048;-76
2022/07/05 17:38:09;;;;;;;3.35;1.48;;;;;;;19.78;49.90;102102.34;10512028;28;20040;-76
2022/07/05 17:43:09;;;;;;;9.50;1.90;;;;;;;19.47;49.58;102107.66;10511488;28;20072;-76
2022/07/05 17:48:10;;;;;;;3.95;1.23;;;;;;;19.22;50.97;102112.19;10498934;28;20124;-77
2022/07/05 17:53:10;;;;;;;2.78;1.20;;;;;;;19.12;50.66;102109.19;10475407;28;20040;-77
2022/07/05 17:58:11;;;;;;;3.95;1.45;;;;;;;19.03;51.07;102109.81;10521315;28;20137;-78
2022/07/05 18:03:12;;;;;;;4.63;1.20;;;;;;;19.06;50.73;102117.88;10493464;28;20115;-77
2022/07/05 18:08:13;;;;;;;7.13;1.75;;;;;;;19.03;50.37;102126.59;10486957;28;20039;-77
2022/07/05 18:13:14;;;;;;;19.98;9.15;;;;;;;18.61;51.20;102130.50;10501342;28;20053;-77
2022/07/05 18:18:15;;;;;;;20.52;12.20;;;;;;;18.31;53.04;102133.88;10500877;28;20122;-77
2022/07/05 18:23:15;;;;;;;1.58;1.30;;;;;;;18.13;53.23;102144.69;10510097;28;20044;-77
2022/07/05 18:28:16;;;;;;;7.65;2.60;;;;;;;18.05;54.72;102141.78;10520214;28;20566;-77
2022/07/05 18:33:16;;;;;;;13.32;7.22;;;;;;;17.71;55.91;102143.13;10485378;28;20042;-77
2022/07/05 18:38:17;;;;;;;4.35;1.60;;;;;;;17.36;57.06;102153.22;10519432;28;20066;-77
2022/07/05 18:43:17;;;;;;;19.63;9.52;;;;;;;16.90;58.67;102149.53;10494373;28;20069;-76
2022/07/05 18:48:18;;;;;;;4.53;2.35;;;;;;;16.76;59.99;102155.97;10526266;28;20555;-78
2022/07/05 18:53:18;;;;;;;4.15;1.75;;;;;;;16.71;58.75;102153.16;10528387;28;20158;-77
2022/07/05 18:58:20;;;;;;;9.90;2.08;;;;;;;16.68;59.12;102150.38;10525207;28;20393;-77
2022/07/05 19:03:22;;;;;;;3.88;2.10;;;;;;;16.59;60.32;102170.28;10510043;28;20069;-77
2022/07/05 19:13:42;;;;;;;3.80;2.00;;;;;;;16.32;59.51;102191.09;10486070;28;20514;-76
2022/07/05 19:18:42;;;;;;;7.75;3.13;;;;;;;16.15;59.31;102188.59;10495382;28;20123;-76
2022/07/05 19:23:43;;;;;;;3.80;1.75;;;;;;;15.89;60.49;102203.22;10485633;28;20077;-77
2022/07/05 19:28:43;;;;;;;1.95;1.58;;;;;;;15.67;61.08;102195.97;10511040;28;20046;-77
2022/07/05 19:33:44;;;;;;;3.03;1.60;;;;;;;15.53;61.52;102205.88;10489633;28;20131;-77
2022/07/05 19:38:46;;;;;;;2.67;2.00;;;;;;;15.37;62.89;102220.03;10487173;28;20117;-77
2022/07/05 19:43:46;;;;;;;3.15;1.90;;;;;;;15.15;63.49;102220.72;10516570;28;20036;-77
2022/07/05 19:48:48;;;;;;;6.72;2.33;;;;;;;14.97;63.79;102227.75;10501319;28;20130;-77
2022/07/05 19:53:49;;;;;;;3.58;2.08;;;;;;;14.73;64.47;102239.66;10524169;28;20123;-77
2022/07/05 19:58:49;;;;;;;4.30;2.00;;;;;;;14.48;65.53;102240.94;10522881;28;20047;-77
2022/07/05 20:03:50;;;;;;;7.75;2.58;;;;;;;14.26;66.43;102254.69;10504420;28;20044;-77
2022/07/05 20:08:51;;;;;;;6.57;2.40;;;;;;;14.02;68.03;102255.16;10496017;28;20074;-77
2022/07/05 20:13:51;;;;;;;7.22;4.53;;;;;;;13.83;68.64;102271.63;10511854;28;20491;-77
2022/07/05 20:18:52;;;;;;;4.78;2.40;;;;;;;13.65;68.95;102275.00;10523416;28;20466;-77
2022/07/05 20:23:52;;;;;;;3.67;2.58;;;;;;;13.41;69.41;102282.38;10520675;28;20059;-77
2022/07/05 20:28:53;;;;;;;6.32;2.40;;;;;;;13.21;70.43;102287.34;10509354;28;20481;-77
2022/07/05 20:33:54;;;;;;;4.13;2.20;;;;;;;13.11;71.77;102292.88;10518960;28;20085;-77
2022/07/05 20:38:54;;;;;;;8.32;4.15;;;;;;;12.98;71.73;102296.47;10492815;28;20033;-76
2022/07/05 20:43:55;;;;;;;5.32;2.45;;;;;;;12.89;72.05;102294.22;10484094;28;20075;-77
2022/07/05 20:48:57;;;;;;;6.90;1.95;;;;;;;12.66;72.16;102305.91;10499110;28;20075;-77
2022/07/05 20:53:57;;;;;;;4.75;1.98;;;;;;;12.45;72.98;102301.13;10502364;28;20067;-77
2022/07/05 20:58:58;;;;;;;6.25;2.15;;;;;;;12.26;73.09;102299.97;10500192;28;20070;-77
2022/07/05 21:04:00;;;;;;;4.68;1.75;;;;;;;12.09;74.42;102303.22;10509367;28;20044;-77
2022/07/05 21:09:00;;;;;;;5.05;2.22;;;;;;;11.85;74.80;102301.72;10453513;28;20037;-76
2022/07/05 21:14:01;;;;;;;4.57;2.00;;;;;;;11.65;75.06;102315.22;10441705;28;20548;-76
2022/07/05 21:19:02;;;;;;;2.55;2.03;;;;;;;11.49;75.40;102323.78;10447185;28;20041;-76
2022/07/05 21:24:04;;;;;;;3.97;1.73;;;;;;;11.27;76.17;102327.56;10453150;28;20424;-76
2022/07/05 21:29:05;;;;;;;1.93;1.23;;;;;;;11.05;77.01;102340.91;10450215;28;20500;-76
2022/07/05 21:34:06;;;;;;;11.60;2.40;;;;;;;10.90;77.86;102348.59;10482957;28;20089;-76
2022/07/05 21:39:06;;;;;;;4.45;1.88;;;;;;;10.73;78.85;102348.31;10453109;28;20065;-76
2022/07/05 21:44:07;;;;;;;15.15;7.53;;;;;;;10.58;80.51;102349.06;10425936;28;20124;-76
2022/07/05 21:49:07;;;;;;;3.83;2.20;;;;;;;10.43;81.31;102353.19;10448020;28;20131;-77
2022/07/05 21:54:08;;;;;;;4.57;2.22;;;;;;;10.27;82.13;102359.91;10427982;28;20400;-77
2022/07/05 22:09:28;;;;;;;5.00;2.67;;;;;;;9.84;86.18;102381.19;10521976;28;20040;-77
2022/07/05 22:14:29;;;;;;;5.85;3.03;;;;;;;9.76;86.70;102378.78;10488766;28;20476;-76
2022/07/05 22:19:30;;;;;;;4.82;2.10;;;;;;;9.73;87.83;102373.31;10498051;28;20043;-77
2022/07/05 22:24:31;;;;;;;4.68;2.08;;;;;;;9.67;87.57;102387.75;10528726;28;20035;-76
2022/07/05 22:29:31;;;;;;;5.20;2.25;;;;;;;9.52;87.72;102383.97;10528783;28;20043;-76
2022/07/05 22:34:32;;;;;;;5.65;3.28;;;;;;;9.35;88.19;102383.59;10529043;28;20044;-76
2022/07/05 22:39:33;;;;;;;6.45;3.33;;;;;;;9.28;88.51;102383.00;10527345;28;20380;-77
2022/07/05 22:44:33;;;;;;;4.07;2.85;;;;;;;9.15;88.15;102381.13;10495608;28;20124;-76
2022/07/05 22:49:34;;;;;;;5.90;3.42;;;;;;;9.01;88.59;102383.59;10498404;28;20037;-77
2022/07/05 22:54:34;;;;;;;6.20;3.65;;;;;;;8.89;89.93;102385.22;10518595;28;20115;-77
2022/07/05 22:59:35;;;;;;;4.55;3.03;;;;;;;8.79;90.68;102381.00;10527136;28;20051;-76
2022/07/05 23:04:35;;;;;;;6.85;3.22;;;;;;;8.76;91.50;102375.53;10470071;28;20054;-77
2022/07/05 23:09:36;;;;;;;9.35;3.70;;;;;;;8.70;91.58;102377.66;10508029;28;20036;-77
2022/07/05 23:14:36;;;;;;;5.00;3.45;;;;;;;8.63;92.40;102373.63;10490003;28;20067;-77
2022/07/05 23:19:37;;;;;;;8.13;4.53;;;;;;;8.48;92.18;102366.38;10484807;28;20060;-78
2022/07/05 23:24:55;;;;;;;7.07;4.43;;;;;;;8.40;92.68;102383.09;10516162;28;20171;-77
2022/07/05 23:29:56;;;;;;;11.02;4.47;;;;;;;8.31;93.72;102382.34;10493677;28;20661;-77